sensor_id;sensor_type;location;lat;lon;timestamp;P1;durP1;ratioP1;P2;durP2;ratioP2
51618;SDS011;38518;53.164;5.430;2022-10-19T00:01:43;4.40;;;1.48;;
51618;SDS011;38518;53.164;5.430;2022-10-19T00:04:09;4.68;;;1.48;;
51618;SDS011;38518;53.164;5.430;2022-10-19T00:06:35;3.33;;;1.90;;
51618;SDS011;38518;53.164;5.430;2022-10-19T00:09:03;3.72;;;1.35;;
51618;SDS011;38518;53.164;5.430;2022-10-19T00:11:30;3.25;;;1.20;;
51618;SDS011;38518;53.164;5.430;2022-10-19T00:13:56;5.85;;;1.67;;
51618;SDS011;38518;53.164;5.430;2022-10-19T00:16:24;6.07;;;1.65;;
51618;SDS011;38518;53.164;5.430;2022-10-19T00:18:52;4.10;;;1.50;;
51618;SDS011;38518;53.164;5.430;2022-10-19T00:21:21;4.22;;;1.33;;
51618;SDS011;38518;53.164;5.430;2022-10-19T00:23:48;5.40;;;1.42;;
51618;SDS011;38518;53.164;5.430;2022-10-19T00:26:13;5.53;;;1.60;;
51618;SDS011;38518;53.164;5.430;2022-10-19T00:28:40;6.82;;;1.60;;
51618;SDS011;38518;53.164;5.430;2022-10-19T00:31:10;7.07;;;1.60;;
51618;SDS011;38518;53.164;5.430;2022-10-19T00:33:38;4.57;;;1.30;;
51618;SDS011;38518;53.164;5.430;2022-10-19T00:36:05;3.17;;;1.30;;
51618;SDS011;38518;53.164;5.430;2022-10-19T00:38:31;3.65;;;1.38;;
51618;SDS011;38518;53.164;5.430;2022-10-19T00:40:57;5.32;;;1.42;;
51618;SDS011;38518;53.164;5.430;2022-10-19T00:43:24;6.25;;;1.63;;
51618;SDS011;38518;53.164;5.430;2022-10-19T00:45:54;6.93;;;1.60;;
51618;SDS011;38518;53.164;5.430;2022-10-19T00:48:20;6.15;;;1.73;;
51618;SDS011;38518;53.164;5.430;2022-10-19T00:50:50;5.55;;;1.80;;
51618;SDS011;38518;53.164;5.430;2022-10-19T00:53:19;8.32;;;2.10;;
51618;SDS011;38518;53.164;5.430;2022-10-19T00:55:46;7.65;;;1.83;;
51618;SDS011;38518;53.164;5.430;2022-10-19T00:58:12;7.85;;;2.10;;
51618;SDS011;38518;53.164;5.430;2022-10-19T01:00:38;5.63;;;1.60;;
51618;SDS011;38518;53.164;5.430;2022-10-19T01:03:04;8.90;;;1.90;;
51618;SDS011;38518;53.164;5.430;2022-10-19T01:05:31;7.72;;;1.80;;
51618;SDS011;38518;53.164;5.430;2022-10-19T01:07:58;6.13;;;1.90;;
51618;SDS011;38518;53.164;5.430;2022-10-19T01:10:48;7.22;;;2.00;;
51618;SDS011;38518;53.164;5.430;2022-10-19T01:16:17;7.97;;;2.20;;
51618;SDS011;38518;53.164;5.430;2022-10-19T01:19:04;9.93;;;1.98;;
51618;SDS011;38518;53.164;5.430;2022-10-19T01:21:50;7.63;;;2.05;;
51618;SDS011;38518;53.164;5.430;2022-10-19T01:30:02;8.55;;;1.92;;
51618;SDS011;38518;53.164;5.430;2022-10-19T01:43:59;7.45;;;1.88;;
51618;SDS011;38518;53.164;5.430;2022-10-19T01:46:35;7.45;;;1.70;;
51618;SDS011;38518;53.164;5.430;2022-10-19T01:49:11;8.27;;;1.70;;
51618;SDS011;38518;53.164;5.430;2022-10-19T01:51:45;8.40;;;1.90;;
51618;SDS011;38518;53.164;5.430;2022-10-19T01:54:21;6.55;;;1.95;;
51618;SDS011;38518;53.164;5.430;2022-10-19T01:56:50;7.97;;;2.20;;
51618;SDS011;38518;53.164;5.430;2022-10-19T01:59:18;8.20;;;1.90;;
51618;SDS011;38518;53.164;5.430;2022-10-19T02:01:46;6.65;;;1.90;;
51618;SDS011;38518;53.164;5.430;2022-10-19T02:04:16;8.77;;;2.25;;
51618;SDS011;38518;53.164;5.430;2022-10-19T02:06:43;7.13;;;2.22;;
51618;SDS011;38518;53.164;5.430;2022-10-19T02:09:09;10.93;;;2.45;;
51618;SDS011;38518;53.164;5.430;2022-10-19T02:11:42;7.82;;;1.90;;
51618;SDS011;38518;53.164;5.430;2022-10-19T02:14:14;7.32;;;2.08;;
51618;SDS011;38518;53.164;5.430;2022-10-19T02:16:48;10.88;;;2.83;;
51618;SDS011;38518;53.164;5.430;2022-10-19T02:19:19;8.73;;;2.03;;
51618;SDS011;38518;53.164;5.430;2022-10-19T02:21:46;8.38;;;2.05;;
51618;SDS011;38518;53.164;5.430;2022-10-19T02:24:12;9.68;;;2.65;;
51618;SDS011;38518;53.164;5.430;2022-10-19T02:26:38;6.55;;;1.75;;
51618;SDS011;38518;53.164;5.430;2022-10-19T02:29:04;8.65;;;1.98;;
51618;SDS011;38518;53.164;5.430;2022-10-19T02:31:31;6.82;;;1.73;;
51618;SDS011;38518;53.164;5.430;2022-10-19T02:33:57;6.68;;;2.10;;
51618;SDS011;38518;53.164;5.430;2022-10-19T02:36:23;5.78;;;1.85;;
51618;SDS011;38518;53.164;5.430;2022-10-19T02:38:49;9.88;;;2.90;;
51618;SDS011;38518;53.164;5.430;2022-10-19T02:41:30;10.55;;;2.20;;
51618;SDS011;38518;53.164;5.430;2022-10-19T02:44:13;8.25;;;1.73;;
51618;SDS011;38518;53.164;5.430;2022-10-19T02:46:49;8.73;;;2.00;;
51618;SDS011;38518;53.164;5.430;2022-10-19T02:49:19;6.20;;;1.98;;
51618;SDS011;38518;53.164;5.430;2022-10-19T02:51:59;8.68;;;2.00;;
51618;SDS011;38518;53.164;5.430;2022-10-19T02:54:36;6.18;;;1.73;;
51618;SDS011;38518;53.164;5.430;2022-10-19T02:57:04;7.50;;;2.30;;
51618;SDS011;38518;53.164;5.430;2022-10-19T02:59:45;8.55;;;2.40;;
51618;SDS011;38518;53.164;5.430;2022-10-19T03:02:11;8.10;;;2.10;;
51618;SDS011;38518;53.164;5.430;2022-10-19T03:04:38;12.75;;;2.28;;
51618;SDS011;38518;53.164;5.430;2022-10-19T03:07:05;8.60;;;1.90;;
51618;SDS011;38518;53.164;5.430;2022-10-19T03:09:32;5.22;;;1.70;;
51618;SDS011;38518;53.164;5.430;2022-10-19T03:11:58;8.93;;;2.28;;
51618;SDS011;38518;53.164;5.430;2022-10-19T03:14:24;7.35;;;2.35;;
51618;SDS011;38518;53.164;5.430;2022-10-19T03:16:50;6.05;;;1.92;;
51618;SDS011;38518;53.164;5.430;2022-10-19T03:19:15;6.90;;;1.85;;
51618;SDS011;38518;53.164;5.430;2022-10-19T03:21:41;8.05;;;2.20;;
51618;SDS011;38518;53.164;5.430;2022-10-19T03:24:07;8.65;;;2.30;;
51618;SDS011;38518;53.164;5.430;2022-10-19T03:26:33;7.63;;;2.25;;
51618;SDS011;38518;53.164;5.430;2022-10-19T03:28:58;5.95;;;1.80;;
51618;SDS011;38518;53.164;5.430;2022-10-19T03:31:24;8.48;;;1.85;;
51618;SDS011;38518;53.164;5.430;2022-10-19T03:33:51;9.10;;;2.88;;
51618;SDS011;38518;53.164;5.430;2022-10-19T03:36:27;6.88;;;2.03;;
51618;SDS011;38518;53.164;5.430;2022-10-19T03:38:56;7.78;;;2.55;;
51618;SDS011;38518;53.164;5.430;2022-10-19T03:41:27;9.70;;;2.35;;
51618;SDS011;38518;53.164;5.430;2022-10-19T03:43:55;5.50;;;2.30;;
51618;SDS011;38518;53.164;5.430;2022-10-19T03:46:21;11.75;;;3.45;;
51618;SDS011;38518;53.164;5.430;2022-10-19T03:48:48;9.77;;;4.10;;
51618;SDS011;38518;53.164;5.430;2022-10-19T03:51:15;7.70;;;3.65;;
51618;SDS011;38518;53.164;5.430;2022-10-19T03:53:43;7.82;;;3.30;;
51618;SDS011;38518;53.164;5.430;2022-10-19T03:56:11;8.68;;;2.83;;
51618;SDS011;38518;53.164;5.430;2022-10-19T03:58:40;8.80;;;2.92;;
51618;SDS011;38518;53.164;5.430;2022-10-19T04:01:08;11.95;;;3.22;;
51618;SDS011;38518;53.164;5.430;2022-10-19T04:03:39;9.70;;;3.13;;
51618;SDS011;38518;53.164;5.430;2022-10-19T04:06:06;7.50;;;2.67;;
51618;SDS011;38518;53.164;5.430;2022-10-19T04:08:34;10.77;;;3.08;;
51618;SDS011;38518;53.164;5.430;2022-10-19T04:11:00;8.80;;;2.50;;
51618;SDS011;38518;53.164;5.430;2022-10-19T04:13:28;10.15;;;2.35;;
51618;SDS011;38518;53.164;5.430;2022-10-19T04:15:54;9.68;;;2.05;;
51618;SDS011;38518;53.164;5.430;2022-10-19T04:18:20;7.25;;;2.20;;
51618;SDS011;38518;53.164;5.430;2022-10-19T04:20:46;7.60;;;1.98;;
51618;SDS011;38518;53.164;5.430;2022-10-19T04:23:11;7.97;;;1.95;;
51618;SDS011;38518;53.164;5.430;2022-10-19T04:25:37;9.15;;;2.38;;
51618;SDS011;38518;53.164;5.430;2022-10-19T04:28:03;7.57;;;1.90;;
51618;SDS011;38518;53.164;5.430;2022-10-19T04:30:29;7.43;;;2.50;;
51618;SDS011;38518;53.164;5.430;2022-10-19T04:32:54;9.52;;;2.90;;
51618;SDS011;38518;53.164;5.430;2022-10-19T04:35:20;8.43;;;2.50;;
51618;SDS011;38518;53.164;5.430;2022-10-19T04:37:46;10.75;;;2.90;;
51618;SDS011;38518;53.164;5.430;2022-10-19T04:40:12;6.80;;;1.90;;
51618;SDS011;38518;53.164;5.430;2022-10-19T04:42:37;6.80;;;1.95;;
51618;SDS011;38518;53.164;5.430;2022-10-19T04:45:04;7.53;;;2.00;;
51618;SDS011;38518;53.164;5.430;2022-10-19T04:47:30;8.80;;;2.38;;
51618;SDS011;38518;53.164;5.430;2022-10-19T04:49:55;7.50;;;2.40;;
51618;SDS011;38518;53.164;5.430;2022-10-19T04:52:21;9.70;;;2.40;;
51618;SDS011;38518;53.164;5.430;2022-10-19T04:54:47;8.02;;;2.35;;
51618;SDS011;38518;53.164;5.430;2022-10-19T04:57:13;5.50;;;1.70;;
51618;SDS011;38518;53.164;5.430;2022-10-19T04:59:39;4.53;;;1.90;;
51618;SDS011;38518;53.164;5.430;2022-10-19T05:02:05;5.22;;;2.03;;
51618;SDS011;38518;53.164;5.430;2022-10-19T05:04:31;7.28;;;1.70;;
51618;SDS011;38518;53.164;5.430;2022-10-19T05:06:57;7.43;;;1.55;;
51618;SDS011;38518;53.164;5.430;2022-10-19T05:09:22;7.28;;;2.00;;
51618;SDS011;38518;53.164;5.430;2022-10-19T05:11:48;4.13;;;1.42;;
51618;SDS011;38518;53.164;5.430;2022-10-19T05:14:15;10.77;;;2.40;;
51618;SDS011;38518;53.164;5.430;2022-10-19T05:16:41;7.40;;;1.98;;
51618;SDS011;38518;53.164;5.430;2022-10-19T05:19:10;9.43;;;2.00;;
51618;SDS011;38518;53.164;5.430;2022-10-19T05:21:39;5.15;;;2.03;;
51618;SDS011;38518;53.164;5.430;2022-10-19T05:24:05;8.20;;;2.13;;
51618;SDS011;38518;53.164;5.430;2022-10-19T05:26:31;5.95;;;1.83;;
51618;SDS011;38518;53.164;5.430;2022-10-19T05:28:58;7.35;;;1.95;;
51618;SDS011;38518;53.164;5.430;2022-10-19T05:31:27;5.82;;;2.10;;
51618;SDS011;38518;53.164;5.430;2022-10-19T05:33:54;8.00;;;2.22;;
51618;SDS011;38518;53.164;5.430;2022-10-19T05:36:21;6.35;;;1.80;;
51618;SDS011;38518;53.164;5.430;2022-10-19T05:38:52;6.75;;;1.65;;
51618;SDS011;38518;53.164;5.430;2022-10-19T05:41:19;7.80;;;1.80;;
51618;SDS011;38518;53.164;5.430;2022-10-19T05:43:46;7.65;;;2.17;;
51618;SDS011;38518;53.164;5.430;2022-10-19T05:46:16;7.88;;;2.20;;
51618;SDS011;38518;53.164;5.430;2022-10-19T05:48:42;9.30;;;2.30;;
51618;SDS011;38518;53.164;5.430;2022-10-19T05:51:10;9.27;;;2.28;;
51618;SDS011;38518;53.164;5.430;2022-10-19T05:53:37;11.75;;;2.50;;
51618;SDS011;38518;53.164;5.430;2022-10-19T05:56:04;10.48;;;2.65;;
51618;SDS011;38518;53.164;5.430;2022-10-19T05:58:31;10.55;;;1.95;;
51618;SDS011;38518;53.164;5.430;2022-10-19T06:00:58;5.95;;;1.70;;
51618;SDS011;38518;53.164;5.430;2022-10-19T06:03:24;7.68;;;2.20;;
51618;SDS011;38518;53.164;5.430;2022-10-19T06:05:51;10.38;;;2.50;;
51618;SDS011;38518;53.164;5.430;2022-10-19T06:08:17;5.78;;;2.13;;
51618;SDS011;38518;53.164;5.430;2022-10-19T06:10:45;8.43;;;1.83;;
51618;SDS011;38518;53.164;5.430;2022-10-19T06:13:12;6.30;;;2.03;;
51618;SDS011;38518;53.164;5.430;2022-10-19T06:15:39;6.90;;;2.08;;
51618;SDS011;38518;53.164;5.430;2022-10-19T06:18:05;8.68;;;2.42;;
51618;SDS011;38518;53.164;5.430;2022-10-19T06:20:33;7.05;;;2.33;;
51618;SDS011;38518;53.164;5.430;2022-10-19T06:23:00;10.05;;;2.67;;
51618;SDS011;38518;53.164;5.430;2022-10-19T06:25:26;9.82;;;2.53;;
51618;SDS011;38518;53.164;5.430;2022-10-19T06:27:53;9.98;;;2.90;;
51618;SDS011;38518;53.164;5.430;2022-10-19T06:30:19;8.30;;;2.15;;
51618;SDS011;38518;53.164;5.430;2022-10-19T06:32:45;4.50;;;2.05;;
51618;SDS011;38518;53.164;5.430;2022-10-19T06:35:10;10.15;;;2.22;;
51618;SDS011;38518;53.164;5.430;2022-10-19T06:37:36;8.00;;;2.13;;
51618;SDS011;38518;53.164;5.430;2022-10-19T06:40:02;6.32;;;2.50;;
51618;SDS011;38518;53.164;5.430;2022-10-19T06:42:28;15.02;;;2.63;;
51618;SDS011;38518;53.164;5.430;2022-10-19T06:44:54;7.47;;;2.55;;
51618;SDS011;38518;53.164;5.430;2022-10-19T06:47:20;10.45;;;2.00;;
51618;SDS011;38518;53.164;5.430;2022-10-19T06:49:46;9.48;;;2.78;;
51618;SDS011;38518;53.164;5.430;2022-10-19T06:52:12;11.05;;;2.30;;
51618;SDS011;38518;53.164;5.430;2022-10-19T06:54:37;5.35;;;1.73;;
51618;SDS011;38518;53.164;5.430;2022-10-19T06:57:03;10.75;;;2.83;;
51618;SDS011;38518;53.164;5.430;2022-10-19T06:59:29;7.57;;;2.40;;
51618;SDS011;38518;53.164;5.430;2022-10-19T07:01:55;6.40;;;1.90;;
51618;SDS011;38518;53.164;5.430;2022-10-19T07:04:22;9.10;;;2.13;;
51618;SDS011;38518;53.164;5.430;2022-10-19T07:06:51;7.60;;;2.10;;
51618;SDS011;38518;53.164;5.430;2022-10-19T07:09:22;7.28;;;2.38;;
51618;SDS011;38518;53.164;5.430;2022-10-19T07:11:51;8.73;;;1.70;;
51618;SDS011;38518;53.164;5.430;2022-10-19T07:14:17;7.85;;;2.33;;
51618;SDS011;38518;53.164;5.430;2022-10-19T07:16:48;9.90;;;1.90;;
51618;SDS011;38518;53.164;5.430;2022-10-19T07:19:14;8.50;;;2.28;;
51618;SDS011;38518;53.164;5.430;2022-10-19T07:21:41;9.57;;;2.53;;
51618;SDS011;38518;53.164;5.430;2022-10-19T07:24:09;11.77;;;2.72;;
51618;SDS011;38518;53.164;5.430;2022-10-19T07:26:35;16.67;;;2.40;;
51618;SDS011;38518;53.164;5.430;2022-10-19T07:29:01;9.48;;;1.98;;
51618;SDS011;38518;53.164;5.430;2022-10-19T07:31:27;11.05;;;2.53;;
51618;SDS011;38518;53.164;5.430;2022-10-19T07:33:58;6.90;;;2.15;;
51618;SDS011;38518;53.164;5.430;2022-10-19T07:36:26;11.65;;;2.45;;
51618;SDS011;38518;53.164;5.430;2022-10-19T07:38:53;10.25;;;2.15;;
51618;SDS011;38518;53.164;5.430;2022-10-19T07:41:20;8.90;;;2.17;;
51618;SDS011;38518;53.164;5.430;2022-10-19T07:43:49;9.48;;;2.17;;
51618;SDS011;38518;53.164;5.430;2022-10-19T07:46:22;11.93;;;2.42;;
51618;SDS011;38518;53.164;5.430;2022-10-19T07:48:50;11.02;;;2.28;;
51618;SDS011;38518;53.164;5.430;2022-10-19T07:51:17;9.50;;;2.25;;
51618;SDS011;38518;53.164;5.430;2022-10-19T07:53:44;9.50;;;2.50;;
51618;SDS011;38518;53.164;5.430;2022-10-19T07:56:14;10.57;;;2.42;;
51618;SDS011;38518;53.164;5.430;2022-10-19T07:58:42;8.60;;;2.63;;
51618;SDS011;38518;53.164;5.430;2022-10-19T08:01:12;8.75;;;2.40;;
51618;SDS011;38518;53.164;5.430;2022-10-19T08:03:40;10.02;;;2.40;;
51618;SDS011;38518;53.164;5.430;2022-10-19T08:06:07;9.77;;;2.60;;
51618;SDS011;38518;53.164;5.430;2022-10-19T08:08:36;15.05;;;2.72;;
51618;SDS011;38518;53.164;5.430;2022-10-19T08:11:18;9.63;;;2.22;;
51618;SDS011;38518;53.164;5.430;2022-10-19T08:13:46;6.78;;;1.85;;
51618;SDS011;38518;53.164;5.430;2022-10-19T08:16:55;6.63;;;2.03;;
51618;SDS011;38518;53.164;5.430;2022-10-19T08:19:06;10.07;;;2.40;;
51618;SDS011;38518;53.164;5.430;2022-10-19T08:21:35;8.20;;;2.47;;
51618;SDS011;38518;53.164;5.430;2022-10-19T08:24:02;7.70;;;2.28;;
51618;SDS011;38518;53.164;5.430;2022-10-19T08:26:30;6.72;;;2.30;;
51618;SDS011;38518;53.164;5.430;2022-10-19T08:29:07;8.98;;;2.10;;
51618;SDS011;38518;53.164;5.430;2022-10-19T08:31:36;8.13;;;2.08;;
51618;SDS011;38518;53.164;5.430;2022-10-19T08:34:03;10.98;;;2.47;;
51618;SDS011;38518;53.164;5.430;2022-10-19T08:36:29;10.57;;;2.90;;
51618;SDS011;38518;53.164;5.430;2022-10-19T08:38:56;7.50;;;2.47;;
51618;SDS011;38518;53.164;5.430;2022-10-19T08:42:07;11.88;;;2.42;;
51618;SDS011;38518;53.164;5.430;2022-10-19T08:49:41;9.70;;;2.33;;
51618;SDS011;38518;53.164;5.430;2022-10-19T08:52:31;10.00;;;2.70;;
51618;SDS011;38518;53.164;5.430;2022-10-19T08:54:57;8.10;;;2.38;;
51618;SDS011;38518;53.164;5.430;2022-10-19T09:03:04;7.32;;;1.80;;
51618;SDS011;38518;53.164;5.430;2022-10-19T09:05:45;6.80;;;2.13;;
51618;SDS011;38518;53.164;5.430;2022-10-19T09:08:24;7.90;;;2.28;;
51618;SDS011;38518;53.164;5.430;2022-10-19T09:10:56;6.90;;;1.98;;
51618;SDS011;38518;53.164;5.430;2022-10-19T09:16:00;8.52;;;2.40;;
51618;SDS011;38518;53.164;5.430;2022-10-19T09:18:33;8.93;;;2.00;;
51618;SDS011;38518;53.164;5.430;2022-10-19T09:24:20;7.20;;;2.10;;
51618;SDS011;38518;53.164;5.430;2022-10-19T09:27:32;7.70;;;1.88;;
51618;SDS011;38518;53.164;5.430;2022-10-19T09:30:16;9.55;;;2.30;;
51618;SDS011;38518;53.164;5.430;2022-10-19T09:32:44;9.57;;;2.17;;
51618;SDS011;38518;53.164;5.430;2022-10-19T09:38:05;9.07;;;1.80;;
51618;SDS011;38518;53.164;5.430;2022-10-19T09:40:32;7.75;;;2.05;;
51618;SDS011;38518;53.164;5.430;2022-10-19T09:42:59;8.73;;;2.08;;
51618;SDS011;38518;53.164;5.430;2022-10-19T09:45:56;7.03;;;1.92;;
51618;SDS011;38518;53.164;5.430;2022-10-19T09:48:52;9.37;;;1.97;;
51618;SDS011;38518;53.164;5.430;2022-10-19T09:51:20;8.82;;;2.00;;
51618;SDS011;38518;53.164;5.430;2022-10-19T09:53:52;10.40;;;1.88;;
51618;SDS011;38518;53.164;5.430;2022-10-19T09:56:26;7.25;;;1.85;;
51618;SDS011;38518;53.164;5.430;2022-10-19T09:58:55;12.68;;;2.28;;
51618;SDS011;38518;53.164;5.430;2022-10-19T10:04:05;6.95;;;2.05;;
51618;SDS011;38518;53.164;5.430;2022-10-19T10:06:34;8.70;;;1.83;;
51618;SDS011;38518;53.164;5.430;2022-10-19T10:09:05;8.15;;;2.10;;
51618;SDS011;38518;53.164;5.430;2022-10-19T10:11:35;7.70;;;1.90;;
51618;SDS011;38518;53.164;5.430;2022-10-19T10:17:18;5.40;;;2.03;;
51618;SDS011;38518;53.164;5.430;2022-10-19T10:22:26;9.10;;;1.80;;
51618;SDS011;38518;53.164;5.430;2022-10-19T10:24:59;5.55;;;1.60;;
51618;SDS011;38518;53.164;5.430;2022-10-19T10:27:33;6.05;;;1.42;;
51618;SDS011;38518;53.164;5.430;2022-10-19T10:32:36;7.10;;;1.88;;
51618;SDS011;38518;53.164;5.430;2022-10-19T10:35:17;9.67;;;1.83;;
51618;SDS011;38518;53.164;5.430;2022-10-19T10:37:47;8.82;;;1.92;;
51618;SDS011;38518;53.164;5.430;2022-10-19T10:40:21;7.88;;;2.08;;
51618;SDS011;38518;53.164;5.430;2022-10-19T10:42:51;6.30;;;1.65;;
51618;SDS011;38518;53.164;5.430;2022-10-19T10:47:55;4.75;;;1.50;;
51618;SDS011;38518;53.164;5.430;2022-10-19T10:50:26;5.10;;;2.00;;
51618;SDS011;38518;53.164;5.430;2022-10-19T10:55:32;6.10;;;1.55;;
51618;SDS011;38518;53.164;5.430;2022-10-19T11:00:48;9.77;;;1.88;;
51618;SDS011;38518;53.164;5.430;2022-10-19T11:03:19;7.60;;;1.85;;
51618;SDS011;38518;53.164;5.430;2022-10-19T11:05:58;4.22;;;1.60;;
51618;SDS011;38518;53.164;5.430;2022-10-19T11:08:30;6.38;;;1.95;;
51618;SDS011;38518;53.164;5.430;2022-10-19T11:11:19;8.27;;;1.80;;
51618;SDS011;38518;53.164;5.430;2022-10-19T11:16:53;7.03;;;2.15;;
51618;SDS011;38518;53.164;5.430;2022-10-19T11:19:29;6.38;;;1.77;;
51618;SDS011;38518;53.164;5.430;2022-10-19T11:33:05;5.65;;;1.70;;
51618;SDS011;38518;53.164;5.430;2022-10-19T11:35:46;4.70;;;1.55;;
51618;SDS011;38518;53.164;5.430;2022-10-19T11:38:32;6.30;;;2.00;;
51618;SDS011;38518;53.164;5.430;2022-10-19T11:58:03;6.43;;;2.00;;
51618;SDS011;38518;53.164;5.430;2022-10-19T12:13:58;4.53;;;1.75;;
51618;SDS011;38518;53.164;5.430;2022-10-19T12:16:44;5.72;;;1.48;;
51618;SDS011;38518;53.164;5.430;2022-10-19T12:22:45;5.82;;;1.48;;
51618;SDS011;38518;53.164;5.430;2022-10-19T12:29:11;4.38;;;1.65;;
51618;SDS011;38518;53.164;5.430;2022-10-19T12:32:24;7.80;;;1.40;;
51618;SDS011;38518;53.164;5.430;2022-10-19T12:47:32;5.28;;;1.20;;
51618;SDS011;38518;53.164;5.430;2022-10-19T12:50:01;5.45;;;1.25;;
51618;SDS011;38518;53.164;5.430;2022-10-19T12:52:52;5.70;;;1.65;;
51618;SDS011;38518;53.164;5.430;2022-10-19T12:58:21;4.45;;;1.70;;
51618;SDS011;38518;53.164;5.430;2022-10-19T13:01:07;7.50;;;1.75;;
51618;SDS011;38518;53.164;5.430;2022-10-19T13:03:42;5.68;;;1.77;;
51618;SDS011;38518;53.164;5.430;2022-10-19T13:08:56;4.05;;;1.50;;
51618;SDS011;38518;53.164;5.430;2022-10-19T13:11:38;6.13;;;1.60;;
51618;SDS011;38518;53.164;5.430;2022-10-19T13:14:56;8.48;;;1.55;;
51618;SDS011;38518;53.164;5.430;2022-10-19T13:17:43;5.30;;;1.85;;
51618;SDS011;38518;53.164;5.430;2022-10-19T13:25:33;5.60;;;1.77;;
51618;SDS011;38518;53.164;5.430;2022-10-19T13:30:56;4.38;;;1.85;;
51618;SDS011;38518;53.164;5.430;2022-10-19T13:36:30;5.72;;;1.70;;
51618;SDS011;38518;53.164;5.430;2022-10-19T13:41:49;5.68;;;1.88;;
51618;SDS011;38518;53.164;5.430;2022-10-19T13:44:37;3.97;;;1.58;;
51618;SDS011;38518;53.164;5.430;2022-10-19T13:50:57;3.92;;;1.50;;
51618;SDS011;38518;53.164;5.430;2022-10-19T14:21:11;5.70;;;1.80;;
51618;SDS011;38518;53.164;5.430;2022-10-19T14:33:08;7.30;;;1.90;;
51618;SDS011;38518;53.164;5.430;2022-10-19T14:35:48;6.80;;;1.90;;
51618;SDS011;38518;53.164;5.430;2022-10-19T14:42:34;5.55;;;1.77;;
51618;SDS011;38518;53.164;5.430;2022-10-19T14:49:48;6.97;;;2.10;;
51618;SDS011;38518;53.164;5.430;2022-10-19T14:53:06;4.30;;;1.55;;
51618;SDS011;38518;53.164;5.430;2022-10-19T14:59:48;4.72;;;1.75;;
51618;SDS011;38518;53.164;5.430;2022-10-19T15:02:45;6.78;;;1.80;;
51618;SDS011;38518;53.164;5.430;2022-10-19T15:05:23;4.60;;;1.85;;
51618;SDS011;38518;53.164;5.430;2022-10-19T15:07:53;5.57;;;1.65;;
51618;SDS011;38518;53.164;5.430;2022-10-19T15:10:21;6.03;;;1.95;;
51618;SDS011;38518;53.164;5.430;2022-10-19T15:12:56;7.50;;;1.73;;
51618;SDS011;38518;53.164;5.430;2022-10-19T15:15:25;5.65;;;2.13;;
51618;SDS011;38518;53.164;5.430;2022-10-19T15:17:54;4.00;;;1.52;;
51618;SDS011;38518;53.164;5.430;2022-10-19T15:20:34;5.93;;;1.73;;
51618;SDS011;38518;53.164;5.430;2022-10-19T15:26:01;6.30;;;2.00;;
51618;SDS011;38518;53.164;5.430;2022-10-19T15:28:44;6.00;;;1.90;;
51618;SDS011;38518;53.164;5.430;2022-10-19T15:31:15;4.40;;;1.60;;
51618;SDS011;38518;53.164;5.430;2022-10-19T15:33:47;7.72;;;1.83;;
51618;SDS011;38518;53.164;5.430;2022-10-19T15:36:21;5.65;;;1.80;;
51618;SDS011;38518;53.164;5.430;2022-10-19T15:38:58;6.07;;;1.75;;
51618;SDS011;38518;53.164;5.430;2022-10-19T15:41:32;11.95;;;2.33;;
51618;SDS011;38518;53.164;5.430;2022-10-19T15:44:00;7.03;;;1.75;;
51618;SDS011;38518;53.164;5.430;2022-10-19T15:52:01;5.63;;;2.40;;
51618;SDS011;38518;53.164;5.430;2022-10-19T15:54:39;5.00;;;1.80;;
51618;SDS011;38518;53.164;5.430;2022-10-19T15:57:18;4.47;;;1.67;;
51618;SDS011;38518;53.164;5.430;2022-10-19T15:59:55;5.68;;;1.70;;
51618;SDS011;38518;53.164;5.430;2022-10-19T16:02:23;7.45;;;1.95;;
51618;SDS011;38518;53.164;5.430;2022-10-19T16:04:50;8.60;;;1.80;;
51618;SDS011;38518;53.164;5.430;2022-10-19T16:07:26;6.97;;;1.88;;
51618;SDS011;38518;53.164;5.430;2022-10-19T16:09:54;5.32;;;2.05;;
51618;SDS011;38518;53.164;5.430;2022-10-19T16:12:21;9.25;;;2.47;;
51618;SDS011;38518;53.164;5.430;2022-10-19T16:14:51;6.32;;;1.83;;
51618;SDS011;38518;53.164;5.430;2022-10-19T16:17:17;5.65;;;2.13;;
51618;SDS011;38518;53.164;5.430;2022-10-19T16:19:43;3.65;;;1.60;;
51618;SDS011;38518;53.164;5.430;2022-10-19T16:22:09;4.20;;;1.60;;
51618;SDS011;38518;53.164;5.430;2022-10-19T16:24:36;7.10;;;2.38;;
51618;SDS011;38518;53.164;5.430;2022-10-19T16:27:03;6.43;;;2.00;;
51618;SDS011;38518;53.164;5.430;2022-10-19T16:29:30;5.93;;;2.20;;
51618;SDS011;38518;53.164;5.430;2022-10-19T16:31:56;6.22;;;2.28;;
51618;SDS011;38518;53.164;5.430;2022-10-19T16:34:22;5.95;;;2.10;;
51618;SDS011;38518;53.164;5.430;2022-10-19T16:36:48;4.30;;;1.88;;
51618;SDS011;38518;53.164;5.430;2022-10-19T16:39:14;5.07;;;1.80;;
51618;SDS011;38518;53.164;5.430;2022-10-19T16:41:40;4.97;;;2.22;;
51618;SDS011;38518;53.164;5.430;2022-10-19T16:44:05;4.40;;;1.90;;
51618;SDS011;38518;53.164;5.430;2022-10-19T16:46:31;5.38;;;2.17;;
51618;SDS011;38518;53.164;5.430;2022-10-19T16:48:57;5.60;;;2.40;;
51618;SDS011;38518;53.164;5.430;2022-10-19T16:51:33;9.35;;;2.92;;
51618;SDS011;38518;53.164;5.430;2022-10-19T16:54:00;8.15;;;2.65;;
51618;SDS011;38518;53.164;5.430;2022-10-19T16:56:27;5.50;;;2.58;;
51618;SDS011;38518;53.164;5.430;2022-10-19T16:58:58;8.20;;;2.47;;
51618;SDS011;38518;53.164;5.430;2022-10-19T17:01:30;5.43;;;2.50;;
51618;SDS011;38518;53.164;5.430;2022-10-19T17:03:56;7.15;;;2.65;;
51618;SDS011;38518;53.164;5.430;2022-10-19T17:06:23;8.07;;;2.92;;
51618;SDS011;38518;53.164;5.430;2022-10-19T17:08:49;4.97;;;2.60;;
51618;SDS011;38518;53.164;5.430;2022-10-19T17:11:23;7.53;;;2.67;;
51618;SDS011;38518;53.164;5.430;2022-10-19T17:13:53;6.82;;;2.80;;
51618;SDS011;38518;53.164;5.430;2022-10-19T17:16:21;4.88;;;2.53;;
51618;SDS011;38518;53.164;5.430;2022-10-19T17:18:48;6.60;;;2.60;;
51618;SDS011;38518;53.164;5.430;2022-10-19T17:21:19;7.63;;;2.75;;
51618;SDS011;38518;53.164;5.430;2022-10-19T17:23:50;7.22;;;2.78;;
51618;SDS011;38518;53.164;5.430;2022-10-19T17:26:16;7.10;;;3.30;;
51618;SDS011;38518;53.164;5.430;2022-10-19T17:28:42;5.57;;;3.08;;
51618;SDS011;38518;53.164;5.430;2022-10-19T17:31:10;7.57;;;3.90;;
51618;SDS011;38518;53.164;5.430;2022-10-19T17:33:38;6.82;;;3.63;;
51618;SDS011;38518;53.164;5.430;2022-10-19T17:36:10;9.02;;;3.80;;
51618;SDS011;38518;53.164;5.430;2022-10-19T17:38:37;8.68;;;4.40;;
51618;SDS011;38518;53.164;5.430;2022-10-19T17:41:06;9.02;;;4.72;;
51618;SDS011;38518;53.164;5.430;2022-10-19T17:43:34;8.63;;;4.25;;
51618;SDS011;38518;53.164;5.430;2022-10-19T17:46:02;8.40;;;4.25;;
51618;SDS011;38518;53.164;5.430;2022-10-19T17:48:30;9.18;;;4.85;;
51618;SDS011;38518;53.164;5.430;2022-10-19T17:50:57;8.80;;;5.28;;
51618;SDS011;38518;53.164;5.430;2022-10-19T17:53:27;10.00;;;5.70;;
51618;SDS011;38518;53.164;5.430;2022-10-19T17:55:53;9.90;;;4.88;;
51618;SDS011;38518;53.164;5.430;2022-10-19T17:58:19;9.15;;;6.60;;
51618;SDS011;38518;53.164;5.430;2022-10-19T18:00:46;10.50;;;6.88;;
51618;SDS011;38518;53.164;5.430;2022-10-19T18:03:16;11.82;;;6.85;;
51618;SDS011;38518;53.164;5.430;2022-10-19T18:05:42;12.20;;;7.05;;
51618;SDS011;38518;53.164;5.430;2022-10-19T18:08:07;9.32;;;6.90;;
51618;SDS011;38518;53.164;5.430;2022-10-19T18:10:34;9.30;;;6.65;;
51618;SDS011;38518;53.164;5.430;2022-10-19T18:13:00;11.23;;;6.70;;
51618;SDS011;38518;53.164;5.430;2022-10-19T18:15:28;8.88;;;7.03;;
51618;SDS011;38518;53.164;5.430;2022-10-19T18:17:54;10.68;;;6.95;;
51618;SDS011;38518;53.164;5.430;2022-10-19T18:20:19;9.85;;;7.25;;
51618;SDS011;38518;53.164;5.430;2022-10-19T18:22:45;12.15;;;7.72;;
51618;SDS011;38518;53.164;5.430;2022-10-19T18:25:11;11.60;;;7.15;;
51618;SDS011;38518;53.164;5.430;2022-10-19T18:27:39;12.55;;;8.07;;
51618;SDS011;38518;53.164;5.430;2022-10-19T18:30:04;12.77;;;6.90;;